Dades meteomassalio
Diari Summary for Diciembre 21, 2017 Units:  Metric    English   Both
« Previous Day
Next Day »
Diari Semanal Mensual Anual Personalitzat
  Maxima: Minima: Mijana:
Temperatura: -17.8 °C -19.6 °C -15.8 °C
Rosada: -17.8 °C -21.1 °C -18 °C
Humitat: Humidity % 61 % 76 %
Velocitat del vent: 0 km/h 0 km/h 8.9 km/h
Racha vent: 0 km/h - -
Vent:- - West
Pressio: 0 hPa 35129.8 hPa -
Pluja: 0 mm    
Historical Graphs
 
 
Tabular Data for Diciembre 21, 2017
Time Temperature Dew Point Pressure Wind Wind Speed Wind Gust Humidity Rainfall Rate (Hourly) solar Conditions
-17.8 °C -17.8 °C 0 hPa Calm     Humidity % 0 mm SolarRadiationWatts/m^2 W/m2 Conditions
00:02 -18.4 °C -20.4 °C 35139.9 hPa Calm     76 % 0 mm 0.0 W/m2 CLR
00:07 -18.4 °C -20.3 °C 35139.9 hPa Calm     77 % 0 mm 0.0 W/m2 CLR
00:08 -18.4 °C -20.3 °C 35139.9 hPa Calm     77 % 0 mm 0.0 W/m2 CLR
00:10 -18.4 °C -20.3 °C 35139.9 hPa Calm     77 % 0 mm 0.0 W/m2 CLR
00:15 -18.4 °C -20.4 °C 35139.9 hPa Calm     76 % 0 mm 0.0 W/m2 CLR
00:16 -18.4 °C -20.4 °C 35139.9 hPa Calm     76 % 0 mm 0.0 W/m2 CLR
00:21 -18.7 °C -20.7 °C 35139.9 hPa Calm     77 % 0 mm 0.0 W/m2 CLR
00:22 -18.7 °C -20.7 °C 35139.9 hPa Calm     76 % 0 mm 0.0 W/m2 CLR
00:23 -18.7 °C -20.8 °C 35139.9 hPa Calm     75 % 0 mm 0.0 W/m2 CLR
00:28 -18.7 °C -20.7 °C 35129.8 hPa Calm     76 % 0 mm 0.0 W/m2 CLR
00:29 -18.7 °C -20.7 °C 35129.8 hPa Calm     76 % 0 mm 0.0 W/m2 CLR
00:34 -18.7 °C -20.4 °C 35129.8 hPa Calm     80 % 0 mm 0.0 W/m2 CLR
00:35 -18.7 °C -20.1 °C 35129.8 hPa Calm     83 % 0 mm 0.0 W/m2 CLR
00:40 -18.7 °C -20.3 °C 35129.8 hPa WNW 15 km/h 15 km/h 81 % 0 mm 0.0 W/m2 CLR
00:42 -18.7 °C -20.3 °C 35129.8 hPa Calm     81 % 0 mm 0.0 W/m2 CLR
00:45 -18.7 °C -20.4 °C 35139.9 hPa West 11.9 km/h 11.9 km/h 80 % 0 mm 0.0 W/m2 CLR
00:49 -18.7 °C -20.4 °C 35139.9 hPa Calm     79 % 0 mm 0.0 W/m2 CLR
00:50 -18.7 °C -20.4 °C 35139.9 hPa Calm     79 % 0 mm 0.0 W/m2 CLR
00:55 -18.7 °C -20.7 °C 35139.9 hPa Calm     77 % 0 mm 0.0 W/m2 CLR
00:56 -18.7 °C -20.6 °C 35139.9 hPa Calm     78 % 0 mm 0.0 W/m2 CLR
01:01 -18.7 °C -20.7 °C 35139.9 hPa Calm     76 % 0 mm 0.0 W/m2 CLR
01:06 -18.7 °C -20.8 °C 35139.9 hPa Calm     75 % 0 mm 0.0 W/m2 CLR
01:07 -18.7 °C -20.8 °C 35139.9 hPa Calm     75 % 0 mm 0.0 W/m2 CLR
01:08 -18.7 °C -20.7 °C 35139.9 hPa Calm     76 % 0 mm 0.0 W/m2 CLR
01:13 -18.4 °C -20.3 °C 35139.9 hPa Calm     77 % 0 mm 0.0 W/m2 CLR
01:18 -18.4 °C -20.1 °C 35139.9 hPa Calm     80 % 0 mm 0.0 W/m2 CLR
01:19 -18.4 °C -20.1 °C 35150.1 hPa Calm     80 % 0 mm 0.0 W/m2 CLR
01:24 -18.4 °C -20.2 °C 35150.1 hPa Calm     79 % 0 mm 0.0 W/m2 CLR
01:29 -18.4 °C -20.4 °C 35139.9 hPa Calm     76 % 0 mm 0.0 W/m2 CLR
01:31 -18.4 °C -20.4 °C 35139.9 hPa Calm     76 % 0 mm 0.0 W/m2 CLR
01:34 -18.4 °C -20.3 °C 35139.9 hPa Calm     77 % 0 mm 0.0 W/m2 CLR
01:36 -18.4 °C -20.3 °C 35139.9 hPa Calm     77 % 0 mm 0.0 W/m2 CLR
01:41 -18.4 °C -20.6 °C 35139.9 hPa Calm     75 % 0 mm 0.0 W/m2 CLR
01:42 -18.4 °C -20.4 °C 35139.9 hPa Calm     76 % 0 mm 0.0 W/m2 CLR
01:43 -18.4 °C -20.3 °C 35139.9 hPa Calm     77 % 0 mm 0.0 W/m2 CLR
01:47 -18.7 °C -20.3 °C 35139.9 hPa Calm     81 % 0 mm 0.0 W/m2 CLR
01:48 -18.7 °C -20.4 °C 35139.9 hPa Calm     80 % 0 mm 0.0 W/m2 CLR
01:53 -18.7 °C -20.3 °C 35129.8 hPa Calm     81 % 0 mm 0.0 W/m2 CLR
01:58 -18.7 °C -20.3 °C 35139.9 hPa West 6 km/h 6 km/h 81 % 0 mm 0.0 W/m2 CLR
01:59 -18.7 °C -20.3 °C 35139.9 hPa West 9 km/h 9 km/h 81 % 0 mm 0.0 W/m2 CLR
02:01 -18.7 °C -20.4 °C 35139.9 hPa West 9 km/h 9 km/h 80 % 0 mm 0.0 W/m2 CLR
02:06 -18.7 °C -20.4 °C 35139.9 hPa West 11.9 km/h 11.9 km/h 79 % 0 mm 0.0 W/m2 CLR
02:11 -18.7 °C -20.6 °C 35139.9 hPa Calm     78 % 0 mm 0.0 W/m2 CLR
02:12 -18.7 °C -20.7 °C 35139.9 hPa Calm     77 % 0 mm 0.0 W/m2 CLR
02:17 -18.7 °C -21.1 °C 35139.9 hPa Calm     73 % 0 mm 0.0 W/m2 CLR
02:19 -18.7 °C -21.1 °C 35150.1 hPa Calm     73 % 0 mm 0.0 W/m2 CLR
02:22 -18.7 °C -20.8 °C 35150.1 hPa Calm     75 % 0 mm 0.0 W/m2 CLR
02:26 -18.7 °C -20.7 °C 35150.1 hPa Calm     77 % 0 mm 0.0 W/m2 CLR
02:28 -18.7 °C -20.7 °C 35150.1 hPa Calm     77 % 0 mm 0.0 W/m2 CLR
02:32 -18.7 °C -20.4 °C 35150.1 hPa Calm     80 % 0 mm 0.0 W/m2 CLR
02:36 -18.7 °C -20.4 °C 35150.1 hPa Calm     80 % 0 mm 0.0 W/m2 CLR
02:39 -19 °C -20.7 °C 35150.1 hPa Calm     80 % 0 mm 0.0 W/m2 CLR
02:41 -19 °C -20.7 °C 35150.1 hPa Calm     80 % 0 mm 0.0 W/m2 CLR
02:46 -19 °C -20.8 °C 35150.1 hPa Calm     79 % 0 mm 0.0 W/m2 CLR
02:47 -19 °C -20.8 °C 35150.1 hPa Calm     79 % 0 mm 0.0 W/m2 CLR
02:52 -19 °C -20.9 °C 35150.1 hPa Calm     78 % 0 mm 0.0 W/m2 CLR
02:53 -19 °C -20.9 °C 35150.1 hPa Calm     78 % 0 mm 0.0 W/m2 CLR
02:55 -19 °C -20.9 °C 35150.1 hPa Calm     78 % 0 mm 0.0 W/m2 CLR
02:58 -19 °C -20.9 °C 35150.1 hPa Calm     78 % 0 mm 0.0 W/m2 CLR
03:01 -19 °C -20.9 °C 35150.1 hPa Calm     78 % 0 mm 0.0 W/m2 CLR
03:05 -19 °C -20.8 °C 35150.1 hPa Calm     79 % 0 mm 0.0 W/m2 CLR
03:10 -19 °C -20.7 °C 35150.1 hPa Calm     80 % 0 mm 0.0 W/m2 CLR
03:12 -19 °C -20.7 °C 35150.1 hPa Calm     80 % 0 mm 0.0 W/m2 CLR
03:16 -19 °C -20.6 °C 35150.1 hPa Calm     81 % 0 mm 0.0 W/m2 CLR
03:17 -19 °C -20.6 °C 35139.9 hPa WSW 11.9 km/h 11.9 km/h 81 % 0 mm 0.0 W/m2 CLR
03:22 -18.7 °C -20.2 °C 35139.9 hPa SSW 6 km/h   82 % 0 mm 0.0 W/m2 CLR
03:23 -19 °C -20.5 °C 35139.9 hPa Calm     82 % 0 mm 0.0 W/m2 CLR
03:28 -18.7 °C -20.3 °C 35150.1 hPa East 11.9 km/h 11.9 km/h 81 % 0 mm 0.0 W/m2 CLR
03:29 -18.7 °C -20.3 °C 35150.1 hPa East 9 km/h 9 km/h 81 % 0 mm 0.0 W/m2 CLR
03:34 -18.7 °C -20.1 °C 35150.1 hPa East 6 km/h   83 % 0 mm 0.0 W/m2 CLR
03:35 -18.4 °C -19.8 °C 35150.1 hPa Calm     83 % 0 mm 0.0 W/m2 CLR
03:40 -18.7 °C -20.1 °C 35150.1 hPa Calm     83 % 0 mm 0.0 W/m2 CLR
03:43 -18.7 °C -20.2 °C 35150.1 hPa Calm     82 % 0 mm 0.0 W/m2 CLR
03:48 -18.7 °C -20 °C 35150.1 hPa Calm     84 % 0 mm 0.0 W/m2 CLR
03:49 -18.7 °C -20 °C 35150.1 hPa Calm     84 % 0 mm 0.0 W/m2 CLR
03:54 -18.7 °C -20.2 °C 35139.9 hPa Calm     82 % 0 mm 0.0 W/m2 CLR
03:59 -19 °C -20.4 °C 35150.1 hPa Calm     83 % 0 mm 0.0 W/m2 CLR
04:03 -19 °C -20.5 °C 35150.1 hPa East 10.3 km/h 10.3 km/h 82 % 0 mm 0.0 W/m2 CLR
04:07 -19 °C -20.5 °C 35150.1 hPa Calm     82 % 0 mm 0.0 W/m2 CLR
04:08 -19 °C -20.5 °C 35150.1 hPa Calm     82 % 0 mm 0.0 W/m2 CLR
04:13 -18.7 °C -20.2 °C 35150.1 hPa Calm     82 % 0 mm 0.0 W/m2 CLR
04:18 -18.4 °C -19.8 °C 35150.1 hPa Calm     83 % 0 mm 0.0 W/m2 CLR
04:23 -18.7 °C -20.1 °C 35150.1 hPa Calm     83 % 0 mm 0.0 W/m2 CLR
04:24 -18.7 °C -20.1 °C 35150.1 hPa Calm     83 % 0 mm 0.0 W/m2 CLR
04:29 -18.7 °C -20 °C 35150.1 hPa Calm     84 % 0 mm 0.0 W/m2 CLR
04:33 -18.7 °C -20 °C 35150.1 hPa Calm     84 % 0 mm 0.0 W/m2 CLR
04:38 -19 °C -20.3 °C 35150.1 hPa Calm     84 % 0 mm 0.0 W/m2 CLR
04:41 -19 °C -20.3 °C 35150.1 hPa Calm     84 % 0 mm 0.0 W/m2 CLR
04:44 -19 °C -20.2 °C 35150.1 hPa Calm     85 % 0 mm 0.0 W/m2 CLR
04:49 -19 °C -20.2 °C 35150.1 hPa Calm     85 % 0 mm 0.0 W/m2 CLR
04:52 -19 °C -20.2 °C 35150.1 hPa Calm     85 % 0 mm 0.0 W/m2 CLR
04:55 -19 °C -20.2 °C 35150.1 hPa Calm   0.8 km/h 85 % 0 mm 0.0 W/m2 CLR
05:00 -19 °C -20.1 °C 35150.1 hPa NW 5.1 km/h 5.1 km/h 86 % 0 mm 0.0 W/m2 CLR
05:01 -19 °C -20.1 °C 35139.9 hPa WNW 9 km/h 9 km/h 86 % 0 mm 0.0 W/m2 CLR
05:06 -19.3 °C -20.1 °C 35139.9 hPa WNW 26.9 km/h 26.9 km/h 90 % 0 mm 0.0 W/m2 CLR
05:09 -19.3 °C -20.3 °C 35139.9 hPa WNW 20.9 km/h 20.9 km/h 88 % 0 mm 0.0 W/m2 CLR
05:12 -19.3 °C -20.5 °C 35139.9 hPa NW 26.9 km/h 26.9 km/h 85 % 0 mm 0.0 W/m2 CLR
05:19 -19.3 °C -20.7 °C 35150.1 hPa West 15.6 km/h 15.6 km/h 83 % 0 mm 0.0 W/m2 CLR
05:22 -19.3 °C -20.7 °C 35150.1 hPa WNW 11.9 km/h 11.9 km/h 83 % 0 mm 0.0 W/m2 CLR
05:25 -19.3 °C -20.9 °C 35150.1 hPa Calm     80 % 0 mm 0.0 W/m2 CLR
05:29 -19.3 °C -21.1 °C 35150.1 hPa Calm     79 % 0 mm 0.0 W/m2 CLR
05:30 -19.3 °C -21.1 °C 35139.9 hPa Calm     79 % 0 mm 0.0 W/m2 CLR
05:35 -19.3 °C -21.1 °C 35139.9 hPa Calm     79 % 0 mm 0.0 W/m2 CLR
05:36 -19.3 °C -20.9 °C 35139.9 hPa Calm     80 % 0 mm 0.0 W/m2 CLR
05:41 -19 °C -20.8 °C 35139.9 hPa Calm     79 % 0 mm 0.0 W/m2 CLR
05:43 -19 °C -20.8 °C 35139.9 hPa Calm     79 % 0 mm 0.0 W/m2 CLR
05:44 -19 °C -20.8 °C 35139.9 hPa Calm     79 % 0 mm 0.0 W/m2 CLR
05:48 -19 °C -20.9 °C 35139.9 hPa Calm     78 % 0 mm 0.0 W/m2 CLR
05:50 -19 °C -20.9 °C 35150.1 hPa Calm     78 % 0 mm 0.0 W/m2 CLR
05:53 -19 °C -20.8 °C 35150.1 hPa Calm     79 % 0 mm 0.0 W/m2 CLR
05:58 -19.3 °C -20.7 °C 35150.1 hPa Calm     83 % 0 mm 0.0 W/m2 CLR
06:03 -19.3 °C -20.6 °C 35150.1 hPa Calm     84 % 0 mm 0.0 W/m2 CLR
06:05 -19.3 °C -20.6 °C 35150.1 hPa Calm     84 % 0 mm 0.0 W/m2 CLR
06:10 -19.3 °C -20.5 °C 35150.1 hPa Calm     85 % 0 mm 0.0 W/m2 CLR
06:12 -19.3 °C -20.4 °C 35150.1 hPa Calm     86 % 0 mm 0.0 W/m2 CLR
06:15 -19.3 °C -20.4 °C 35150.1 hPa Calm     86 % 0 mm 0.0 W/m2 CLR
06:19 -19.3 °C -20.4 °C 35150.1 hPa Calm     86 % 0 mm 0.0 W/m2 CLR
06:21 -19.3 °C -20.4 °C 35150.1 hPa Calm     86 % 0 mm 0.0 W/m2 CLR
06:24 -19.3 °C -20.4 °C 35150.1 hPa WNW 2.6 km/h   86 % 0 mm 0.0 W/m2 CLR
06:26 -19.3 °C -20.5 °C 35150.1 hPa WNW 6 km/h 6 km/h 85 % 0 mm 0.0 W/m2 CLR
06:31 -19.3 °C -20.5 °C 35150.1 hPa West 6 km/h 6 km/h 85 % 0 mm 0.0 W/m2 CLR
06:35 -19.3 °C -20.5 °C 35150.1 hPa Calm     85 % 0 mm 0.0 W/m2 CLR
06:36 -19.3 °C -20.4 °C 35150.1 hPa Calm     86 % 0 mm 0.0 W/m2 CLR
06:41 -19.3 °C -20.4 °C 35150.1 hPa Calm     86 % 0 mm 0.0 W/m2 CLR
06:42 -19.3 °C -20.4 °C 35150.1 hPa Calm     86 % 0 mm 0.0 W/m2 CLR
06:46 -19.3 °C -20.4 °C 35150.1 hPa Calm     86 % 0 mm 0.0 W/m2 CLR
06:48 -19.3 °C -20.4 °C 35150.1 hPa Calm     86 % 0 mm 0.0 W/m2 CLR
06:53 -19.6 °C -20.7 °C 35163.6 hPa Calm     86 % 0 mm 0.0 W/m2 CLR
06:58 -19.6 °C -20.7 °C 35163.6 hPa Calm     87 % 0 mm 0.0 W/m2 CLR
06:59 -19.6 °C -20.7 °C 35163.6 hPa Calm     87 % 0 mm 0.0 W/m2 CLR
07:01 -19.6 °C -20.7 °C 35163.6 hPa Calm     87 % 0 mm 0.0 W/m2 CLR
07:04 -19.6 °C -20.7 °C 35150.1 hPa Calm     87 % 0 mm 0.0 W/m2 CLR
07:08 -19.6 °C -20.6 °C 35163.6 hPa Calm     88 % 0 mm 0.0 W/m2 CLR
07:10 -19.6 °C -20.6 °C 35150.1 hPa Calm     88 % 0 mm 0.0 W/m2 CLR
07:15 -19.6 °C -20.7 °C 35150.1 hPa Calm     86 % 0 mm 0.0 W/m2 CLR
07:16 -19.6 °C -20.7 °C 35163.6 hPa Calm     86 % 0 mm 0.0 W/m2 CLR
07:21 -19.6 °C -20.6 °C 35163.6 hPa Calm     88 % 0 mm 0.0 W/m2 CLR
07:23 -19.6 °C -20.6 °C 35163.6 hPa Calm     88 % 0 mm 0.0 W/m2 CLR
07:26 -19.6 °C -20.6 °C 35163.6 hPa Calm     88 % 0 mm 0.0 W/m2 CLR
07:30 -19.6 °C -20.7 °C 35163.6 hPa Calm     87 % 0 mm 0.0 W/m2 CLR
07:32 -19.6 °C -20.6 °C 35163.6 hPa Calm     88 % 0 mm 0.0 W/m2 CLR
07:37 -19.6 °C -20.5 °C 35173.8 hPa Calm     89 % 0 mm 0.0 W/m2 CLR
07:42 -19.6 °C -20.5 °C 35163.6 hPa Calm     89 % 0 mm 0.0 W/m2 CLR
07:44 -19.6 °C -20.5 °C 35173.8 hPa Calm     89 % 0 mm 0.0 W/m2 CLR
07:46 -19.6 °C -20.5 °C 35173.8 hPa Calm     89 % 0 mm 0.0 W/m2 CLR
07:50 -19.6 °C -20.7 °C 35173.8 hPa Calm     87 % 0 mm 0.0 W/m2 CLR
07:55 -19.3 °C -20.4 °C 35173.8 hPa Calm     87 % 0 mm 0.0 W/m2 CLR
07:58 -19.3 °C -20.4 °C 35173.8 hPa Calm     87 % 0 mm 0.0 W/m2 CLR
08:03 -19.3 °C -20.4 °C 35173.8 hPa Calm     86 % 0 mm 0.0 W/m2 CLR
08:09 -19.3 °C -20.2 °C 35173.8 hPa Calm     89 % 0 mm 0.0 W/m2 CLR
08:10 -19.3 °C -20.2 °C 35173.8 hPa Calm     89 % 0 mm 0.0 W/m2 CLR
08:11 -19.3 °C -20.2 °C 35173.8 hPa WNW 9 km/h 9 km/h 89 % 0 mm 0.0 W/m2 OVC
08:16 -19.3 °C -20.1 °C 35173.8 hPa WNW 10.3 km/h 10.3 km/h 90 % 0 mm 0.0 W/m2 OVC
08:18 -19.3 °C -20.1 °C 35173.8 hPa WNW 9 km/h 9 km/h 91 % 0 mm 0.0 W/m2 OVC
08:19 -19.3 °C -20.1 °C 35173.8 hPa NW 6 km/h 6 km/h 91 % 0 mm 0.0 W/m2 OVC
08:24 -19 °C -19.7 °C 35173.8 hPa WNW 17.9 km/h 17.9 km/h 91 % 0 mm 5.0 W/m2 OVC
08:26 -19 °C -19.8 °C 35187.3 hPa Calm     90 % 0 mm 5.0 W/m2 OVC
08:29 -19 °C -19.9 °C 35187.3 hPa NW 15 km/h 15 km/h 89 % 0 mm 7.0 W/m2 BKN
08:34 -19 °C -20.1 °C 35187.3 hPa WNW 25.9 km/h 25.9 km/h 86 % 0 mm 9.0 W/m2 BKN
08:36 -19 °C -20.1 °C 35187.3 hPa NW 26.9 km/h 26.9 km/h 86 % 0 mm 11.0 W/m2 BKN
08:41 -19 °C -20.4 °C 35187.3 hPa NW 29.8 km/h 29.8 km/h 83 % 0 mm 12.0 W/m2 BKN
08:46 -19 °C -20.6 °C 35197.5 hPa NNW 26.9 km/h 26.9 km/h 81 % 0 mm 14.0 W/m2 BKN
08:50 -19 °C -20.6 °C 35197.5 hPa NW 20.9 km/h 20.9 km/h 81 % 0 mm 18.0 W/m2 BKN
08:53 -19 °C -20.6 °C 35197.5 hPa NW 26.9 km/h 26.9 km/h 81 % 0 mm 21.0 W/m2 BKN
08:59 -18.4 °C -19.9 °C 35197.5 hPa WNW 12.9 km/h 12.9 km/h 81 % 0 mm 26.0 W/m2 BKN
09:09 -18.4 °C -20.1 °C 35197.5 hPa NNW 6 km/h 6 km/h 80 % 0 mm 51.0 W/m2 SCT
09:14 -18.1 °C -19.8 °C 35197.5 hPa Calm     80 % 0 mm 58.0 W/m2 SCT
09:16 -18.1 °C -19.8 °C 35207.6 hPa Calm     80 % 0 mm 65.0 W/m2 SCT
09:21 -17.4 °C -19.2 °C 35207.6 hPa Calm     80 % 0 mm 79.0 W/m2 FEW
09:23 -17.4 °C -19.2 °C 35207.6 hPa Calm     80 % 0 mm 83.0 W/m2 FEW
09:28 -17.4 °C -19.3 °C 35197.5 hPa Calm     79 % 0 mm 95.0 W/m2 FEW
09:30 -17.4 °C -19.3 °C 35197.5 hPa Calm     79 % 0 mm 84.0 W/m2 FEW
09:34 -17.2 °C -18.9 °C 35207.6 hPa Calm     79 % 0 mm 111.0 W/m2 CLR
09:37 -17.2 °C -18.9 °C 35207.6 hPa Calm     79 % 0 mm 118.0 W/m2 CLR
09:40 -17.2 °C -18.9 °C 35207.6 hPa Calm     79 % 0 mm 127.0 W/m2 CLR
09:45 -16.8 °C -18.8 °C 35207.6 hPa Calm     78 % 0 mm 127.0 W/m2 CLR
09:50 -16.2 °C -18.2 °C 35207.6 hPa Calm     77 % 0 mm 155.0 W/m2 CLR
09:51 -16.2 °C -18.2 °C 35207.6 hPa Calm     77 % 0 mm 158.0 W/m2 CLR
09:56 -16.2 °C -18.4 °C 35207.6 hPa Calm     76 % 0 mm 171.0 W/m2 CLR
10:00 -16.2 °C -18.4 °C 35207.6 hPa Calm     76 % 0 mm 111.0 W/m2 CLR
10:02 -16.2 °C -18.4 °C 35207.6 hPa Calm     76 % 0 mm 144.0 W/m2 CLR
10:06 -16.2 °C -18.4 °C 35221.2 hPa Calm     75 % 0 mm 158.0 W/m2 CLR
10:09 -16.2 °C -18.4 °C 35221.2 hPa Calm     75 % 0 mm 176.0 W/m2 CLR
10:11 -16.2 °C -18.6 °C 35221.2 hPa Calm     74 % 0 mm 181.0 W/m2 CLR
10:16 -15.9 °C -18.3 °C 35221.2 hPa Calm     74 % 0 mm 209.0 W/m2 CLR
10:17 -15.9 °C -18.3 °C 35221.2 hPa Calm     74 % 0 mm 227.0 W/m2 CLR
10:18 -15.6 °C -17.9 °C 35221.2 hPa Calm     74 % 0 mm 229.0 W/m2 CLR
10:23 -15.6 °C -18.1 °C 35221.2 hPa Calm     73 % 0 mm 241.0 W/m2 CLR
10:25 -15 °C -17.6 °C 35221.2 hPa NW 28.5 km/h 28.5 km/h 72 % 0 mm 248.0 W/m2 CLR
10:29 -14.7 °C -17.3 °C 35221.2 hPa NW 29.8 km/h 29.8 km/h 72 % 0 mm 255.0 W/m2 CLR
10:32 -14.1 °C -16.8 °C 35221.2 hPa NW 26.9 km/h 26.9 km/h 71 % 0 mm 260.0 W/m2 CLR
10:34 -13.8 °C -16.5 °C 35221.2 hPa NNW 9 km/h 9 km/h 71 % 0 mm 267.0 W/m2 CLR
10:39 -13.4 °C -16.3 °C 35231.3 hPa NW 5.1 km/h 5.1 km/h 70 % 0 mm 276.0 W/m2 CLR
10:41 -13.2 °C -16 °C 35231.3 hPa NNW 26.9 km/h 26.9 km/h 70 % 0 mm 279.0 W/m2 CLR
10:45 -12.8 °C -15.8 °C 35231.3 hPa West 26.9 km/h 26.9 km/h 69 % 0 mm 288.0 W/m2 CLR
10:50 -12.6 °C -15.5 °C 35231.3 hPa NW 44.7 km/h 44.7 km/h 69 % 0 mm 295.0 W/m2 CLR
10:51 -12.6 °C -15.7 °C 35231.3 hPa NW 29.8 km/h 29.8 km/h 68 % 0 mm 299.0 W/m2 CLR
10:55 -12.6 °C -15.5 °C 35231.3 hPa NW 50.7 km/h 50.7 km/h 69 % 0 mm 304.0 W/m2 CLR
10:57 -12.6 °C -15.5 °C 35244.9 hPa NW 32.8 km/h 32.8 km/h 69 % 0 mm 309.0 W/m2 CLR
11:01 -12.6 °C -15.5 °C 35244.9 hPa North 32.8 km/h 32.8 km/h 69 % 0 mm 313.0 W/m2 CLR
11:03 -12.6 °C -15.5 °C 35244.9 hPa NNW 41.4 km/h 41.4 km/h 69 % 0 mm 316.0 W/m2 CLR
11:07 -12.6 °C -15.4 °C 35244.9 hPa NNW 35.7 km/h 35.7 km/h 70 % 0 mm 325.0 W/m2 CLR
11:09 -12.6 °C -15.4 °C 35244.9 hPa NW 35.7 km/h 35.7 km/h 70 % 0 mm 327.0 W/m2 CLR
11:12 -12.6 °C -15.4 °C 35244.9 hPa NW 29.8 km/h 29.8 km/h 70 % 0 mm 332.0 W/m2 CLR
11:14 -12.6 °C -15.4 °C 35244.9 hPa NW 32.8 km/h 32.8 km/h 70 % 0 mm 336.0 W/m2 CLR
11:19 -12.6 °C -15.5 °C 35231.3 hPa NW 6 km/h 6 km/h 69 % 0 mm 343.0 W/m2 CLR
11:20 -12.2 °C -15.1 °C 35231.3 hPa NW 20.8 km/h 20.8 km/h 70 % 0 mm 345.0 W/m2 CLR
11:25 -12.2 °C -15.2 °C 35231.3 hPa NNW 32.8 km/h 32.8 km/h 69 % 0 mm 352.0 W/m2 CLR
11:26 -12.2 °C -15.2 °C 35231.3 hPa WNW 32.8 km/h 32.8 km/h 69 % 0 mm 353.0 W/m2 CLR
11:28 -12.2 °C -15.1 °C 35231.3 hPa NW 26.9 km/h 26.9 km/h 70 % 0 mm 357.0 W/m2 CLR
11:32 -12.2 °C -15.2 °C 35231.3 hPa NNW 41.4 km/h 41.4 km/h 69 % 0 mm 362.0 W/m2 CLR
11:33 -12.2 °C -15.2 °C 35231.3 hPa North 41.4 km/h 41.4 km/h 69 % 0 mm 362.0 W/m2 CLR
11:38 -12.2 °C -15.2 °C 35231.3 hPa WNW 29.8 km/h 29.8 km/h 69 % 0 mm 366.0 W/m2 CLR
11:43 -12.2 °C -15.2 °C 35231.3 hPa NNW 38.8 km/h 38.8 km/h 69 % 0 mm 374.0 W/m2 CLR
11:44 -12.2 °C -15.2 °C 35231.3 hPa NW 38.8 km/h 38.8 km/h 69 % 0 mm 374.0 W/m2 CLR
11:49 -11.9 °C -15.1 °C 35231.3 hPa NW 50.7 km/h 50.7 km/h 68 % 0 mm 381.0 W/m2 CLR
11:54 -11.9 °C -15.1 °C 35231.3 hPa North 47.6 km/h 47.6 km/h 68 % 0 mm 387.0 W/m2 CLR
11:55 -11.9 °C -15.1 °C 35221.2 hPa North 59.5 km/h 59.5 km/h 68 % 0 mm 387.0 W/m2 CLR
12:00 -11.9 °C -15.1 °C 35231.3 hPa NNW 29.8 km/h 29.8 km/h 68 % 0 mm 392.0 W/m2 CLR
12:01 -11.9 °C -15.1 °C 35221.2 hPa NNW 33.6 km/h 33.6 km/h 68 % 0 mm 392.0 W/m2 CLR
12:02 -11.9 °C -15.1 °C 35221.2 hPa NW 35.7 km/h 35.7 km/h 68 % 0 mm 394.0 W/m2 CLR
12:07 -11.6 °C -14.9 °C 35221.2 hPa NNE 32.8 km/h 32.8 km/h 67 % 0 mm 397.0 W/m2 CLR
12:10 -11.6 °C -14.9 °C 35221.2 hPa NNW 23.8 km/h 23.8 km/h 67 % 0 mm 401.0 W/m2 CLR
12:13 -11.6 °C -15 °C 35221.2 hPa NNW 31.1 km/h 31.1 km/h 66 % 0 mm 403.0 W/m2 CLR
12:18 -11.6 °C -15 °C 35221.2 hPa NW 29.8 km/h 29.8 km/h 66 % 0 mm 406.0 W/m2 CLR
12:19 -11.6 °C -15 °C 35221.2 hPa NNW 33.6 km/h 33.6 km/h 66 % 0 mm 309.0 W/m2 CLR
12:20 -11.6 °C -15 °C 35221.2 hPa NW 32.8 km/h 32.8 km/h 66 % 0 mm 406.0 W/m2 CLR
12:25 -11.6 °C -15 °C 35207.6 hPa NNW 26.9 km/h 26.9 km/h 66 % 0 mm 408.0 W/m2 CLR
12:26 -11.6 °C -15 °C 35221.2 hPa NNW 32.8 km/h 32.8 km/h 66 % 0 mm 408.0 W/m2 CLR
12:28 -11.6 °C -15.1 °C 35221.2 hPa NW 29.8 km/h 29.8 km/h 65 % 0 mm 411.0 W/m2 CLR
12:31 -11.3 °C -14.8 °C 35221.2 hPa NNW 29.8 km/h 29.8 km/h 65 % 0 mm 413.0 W/m2 CLR
12:35 -11.3 °C -14.8 °C 35221.2 hPa NW 32.8 km/h 32.8 km/h 65 % 0 mm 415.0 W/m2 CLR
12:36 -11.3 °C -14.8 °C 35221.2 hPa NNW 32.8 km/h 32.8 km/h 65 % 0 mm 417.0 W/m2 CLR
12:41 -11.3 °C -14.9 °C 35221.2 hPa NNW 41.7 km/h 41.7 km/h 64 % 0 mm 415.0 W/m2 CLR
12:45 -11.3 °C -14.9 °C 35207.6 hPa NNW 41.7 km/h 41.7 km/h 64 % 0 mm 417.0 W/m2 CLR
12:47 -11.3 °C -14.9 °C 35221.2 hPa NNW 38.8 km/h 38.8 km/h 64 % 0 mm 418.0 W/m2 CLR
12:52 -11 °C -14.7 °C 35207.6 hPa NNE 41.7 km/h 41.7 km/h 64 % 0 mm 420.0 W/m2 CLR
12:57 -11 °C -14.7 °C 35207.6 hPa NNW 32.8 km/h 32.8 km/h 64 % 0 mm 417.0 W/m2 CLR
12:59 -11 °C -14.7 °C 35207.6 hPa NNW 23.8 km/h 23.8 km/h 64 % 0 mm 417.0 W/m2 CLR
13:04 -11 °C -14.7 °C 35207.6 hPa NNW 36.2 km/h 36.2 km/h 64 % 0 mm 417.0 W/m2 CLR
13:07 -11 °C -14.8 °C 35207.6 hPa North 36.2 km/h 36.2 km/h 63 % 0 mm 418.0 W/m2 CLR
13:11 -11 °C -14.8 °C 35207.6 hPa WNW 29.8 km/h 29.8 km/h 63 % 0 mm 417.0 W/m2 CLR
13:14 -11 °C -14.8 °C 35207.6 hPa NNW 32.8 km/h 32.8 km/h 63 % 0 mm 415.0 W/m2 CLR
13:17 -11 °C -14.8 °C 35207.6 hPa NW 23.8 km/h 23.8 km/h 63 % 0 mm 415.0 W/m2 CLR
13:20 -10.7 °C -14.5 °C 35197.5 hPa NW 29.8 km/h 29.8 km/h 63 % 0 mm 413.0 W/m2 CLR
13:23 -10.7 °C -14.5 °C 35197.5 hPa NNW 33.6 km/h 33.6 km/h 63 % 0 mm 413.0 W/m2 CLR
13:27 -11 °C -14.8 °C 35197.5 hPa NW 38.8 km/h 38.8 km/h 63 % 0 mm 413.0 W/m2 CLR
13:28 -11 °C -14.8 °C 35197.5 hPa NNW 38.8 km/h 38.8 km/h 63 % 0 mm 410.0 W/m2 CLR
13:33 -11 °C -14.8 °C 35197.5 hPa North 29.8 km/h 29.8 km/h 63 % 0 mm 410.0 W/m2 CLR
13:34 -11 °C -14.8 °C 35197.5 hPa NNW 33.6 km/h 33.6 km/h 63 % 0 mm 408.0 W/m2 CLR
13:39 -10.7 °C -14.6 °C 35197.5 hPa NNW 38.8 km/h 38.8 km/h 62 % 0 mm 406.0 W/m2 CLR
13:42 -10.7 °C -14.6 °C 35197.5 hPa NW 38.8 km/h 38.8 km/h 62 % 0 mm 404.0 W/m2 CLR
13:44 -10.7 °C -14.6 °C 35197.5 hPa NW 38.8 km/h 38.8 km/h 62 % 0 mm 403.0 W/m2 CLR
13:49 -10.7 °C -14.6 °C 35197.5 hPa North 29.8 km/h 29.8 km/h 62 % 0 mm 399.0 W/m2 CLR
13:50 -10.7 °C -14.6 °C 35197.5 hPa North 31.1 km/h 31.1 km/h 62 % 0 mm 397.0 W/m2 CLR
13:54 -10.7 °C -14.6 °C 35197.5 hPa NNW 29.8 km/h 29.8 km/h 62 % 0 mm 394.0 W/m2 CLR
13:56 -10.7 °C -14.6 °C 35197.5 hPa NNW 33.6 km/h 33.6 km/h 62 % 0 mm 390.0 W/m2 CLR
14:01 -10.7 °C -14.6 °C 35187.3 hPa North 26.9 km/h 26.9 km/h 62 % 0 mm 387.0 W/m2 CLR
14:02 -10.7 °C -14.6 °C 35197.5 hPa North 26.9 km/h 26.9 km/h 62 % 0 mm 387.0 W/m2 CLR
14:07 -10.7 °C -14.6 °C 35197.5 hPa NNE 25.9 km/h 25.9 km/h 62 % 0 mm 381.0 W/m2 CLR
14:11 -10.7 °C -14.8 °C 35187.3 hPa NNE 23.8 km/h 23.8 km/h 61 % 0 mm 378.0 W/m2 CLR
14:12 -10.7 °C -14.8 °C 35187.3 hPa ENE 23.8 km/h 23.8 km/h 61 % 0 mm 376.0 W/m2 CLR
14:17 -10.7 °C -14.6 °C 35187.3 hPa NW 29.8 km/h 29.8 km/h 62 % 0 mm 371.0 W/m2 CLR
14:18 -11 °C -14.9 °C 35187.3 hPa North 29.8 km/h 29.8 km/h 62 % 0 mm 369.0 W/m2 CLR
14:23 -10.7 °C -14.6 °C 35187.3 hPa NNW 26.9 km/h 26.9 km/h 62 % 0 mm 364.0 W/m2 CLR
14:28 -10.7 °C -14.8 °C 35187.3 hPa North 25.9 km/h 25.9 km/h 61 % 0 mm 359.0 W/m2 CLR
14:30 -10.7 °C -14.8 °C 35187.3 hPa NW 20.9 km/h 20.9 km/h 61 % 0 mm 355.0 W/m2 CLR
14:34 -10.7 °C -14.8 °C 35187.3 hPa North 29.8 km/h 29.8 km/h 61 % 0 mm 350.0 W/m2 CLR
14:36 -10.7 °C -14.8 °C 35187.3 hPa NNW 38.8 km/h 38.8 km/h 61 % 0 mm 348.0 W/m2 CLR
14:41 -10.7 °C -14.8 °C 35187.3 hPa NNW 23.8 km/h 23.8 km/h 61 % 0 mm 339.0 W/m2 CLR
14:42 -10.7 °C -14.6 °C 35173.8 hPa North 29.8 km/h 29.8 km/h 62 % 0 mm 338.0 W/m2 CLR
14:47 -10.7 °C -14.6 °C 35187.3 hPa NNW 23.8 km/h 23.8 km/h 62 % 0 mm 329.0 W/m2 CLR
14:48 -10.7 °C -14.6 °C 35187.3 hPa North 23.8 km/h 23.8 km/h 62 % 0 mm 329.0 W/m2 CLR
14:53 -10.7 °C -14.6 °C 35187.3 hPa NNW 26.9 km/h 26.9 km/h 62 % 0 mm 320.0 W/m2 CLR
14:57 -10.7 °C -14.6 °C 35187.3 hPa North 26.9 km/h 26.9 km/h 62 % 0 mm 313.0 W/m2 CLR
14:59 -10.7 °C -14.6 °C 35187.3 hPa North 28.5 km/h 28.5 km/h 62 % 0 mm 311.0 W/m2 CLR
15:03 -10.7 °C -14.6 °C 35187.3 hPa NNE 29.8 km/h 29.8 km/h 62 % 0 mm 304.0 W/m2 CLR
15:05 -10.7 °C -14.6 °C 35187.3 hPa NNE 29.8 km/h 29.8 km/h 62 % 0 mm 301.0 W/m2 CLR
15:09 -10.7 °C -14.6 °C 35187.3 hPa NNW 26.9 km/h 26.9 km/h 62 % 0 mm 294.0 W/m2 CLR
15:10 -10.7 °C -14.6 °C 35173.8 hPa NNW 26.9 km/h 26.9 km/h 62 % 0 mm 290.0 W/m2 CLR
15:15 -10.7 °C -14.6 °C 35187.3 hPa North 20.8 km/h 20.8 km/h 62 % 0 mm 281.0 W/m2 CLR
15:16 -10.7 °C -14.6 °C 35187.3 hPa North 20.9 km/h 20.9 km/h 62 % 0 mm 281.0 W/m2 CLR
15:21 -10.4 °C -14.5 °C 35187.3 hPa NNW 20.9 km/h 20.9 km/h 61 % 0 mm 272.0 W/m2 CLR
15:22 -10.4 °C -14.5 °C 35187.3 hPa NNW 9 km/h   61 % 0 mm 269.0 W/m2 CLR
15:25 -10.4 °C -14.5 °C 35187.3 hPa North 23.8 km/h 23.8 km/h 61 % 0 mm 264.0 W/m2 CLR
15:27 -10.7 °C -14.8 °C 35187.3 hPa North 26.9 km/h 26.9 km/h 61 % 0 mm 258.0 W/m2 CLR
15:30 -10.4 °C -14.3 °C 35187.3 hPa North 23.8 km/h 23.8 km/h 62 % 0 mm 250.0 W/m2 CLR
15:32 -10.7 °C -14.6 °C 35187.3 hPa North 26.9 km/h 26.9 km/h 62 % 0 mm 244.0 W/m2 CLR
15:37 -10.7 °C -14.6 °C 35187.3 hPa NNE 23.8 km/h 23.8 km/h 62 % 0 mm 232.0 W/m2 CLR
15:42 -10.7 °C -14.5 °C 35187.3 hPa North 17.9 km/h 17.9 km/h 63 % 0 mm 218.0 W/m2 CLR
15:44 -10.7 °C -14.5 °C 35187.3 hPa NNW 23.8 km/h 23.8 km/h 63 % 0 mm 214.0 W/m2 CLR
15:49 -10.7 °C -14.5 °C 35187.3 hPa NW 20.9 km/h 20.9 km/h 63 % 0 mm 200.0 W/m2 CLR
15:50 -10.7 °C -14.5 °C 35187.3 hPa NW 20.9 km/h 20.9 km/h 63 % 0 mm 200.0 W/m2 CLR
15:51 -10.7 °C -14.6 °C 35187.3 hPa NW 17.9 km/h 17.9 km/h 62 % 0 mm 199.0 W/m2 CLR
15:56 -10.7 °C -14.6 °C 35187.3 hPa NW 23.8 km/h 23.8 km/h 62 % 0 mm 186.0 W/m2 CLR
15:58 -11 °C -14.9 °C 35187.3 hPa NW 20.9 km/h 20.9 km/h 62 % 0 mm 178.0 W/m2 CLR
16:02 -11 °C -14.9 °C 35187.3 hPa NW 26.9 km/h 26.9 km/h 62 % 0 mm 171.0 W/m2 CLR
16:05 -11 °C -14.9 °C 35187.3 hPa NNW 20.9 km/h 20.9 km/h 62 % 0 mm 160.0 W/m2 CLR
16:08 -11 °C -14.9 °C 35187.3 hPa NW 17.9 km/h 17.9 km/h 62 % 0 mm 153.0 W/m2 CLR
16:13 -11 °C -14.9 °C 35187.3 hPa NW 2.6 km/h 2.6 km/h 62 % 0 mm 139.0 W/m2 CLR
16:14 -11 °C -14.9 °C 35187.3 hPa NW 6 km/h 6 km/h 62 % 0 mm 137.0 W/m2 CLR
16:19 -11.3 °C -15.2 °C 35187.3 hPa NW 17.9 km/h 17.9 km/h 62 % 0 mm 123.0 W/m2 CLR
16:24 -11.3 °C -15.2 °C 35187.3 hPa NNW 18.2 km/h 18.2 km/h 62 % 0 mm 109.0 W/m2 CLR
16:26 -11.3 °C -15.2 °C 35187.3 hPa NNW 20.9 km/h 20.9 km/h 62 % 0 mm 104.0 W/m2 CLR
16:28 -11.3 °C -15.2 °C 35187.3 hPa NNW 20.9 km/h 20.9 km/h 62 % 0 mm 98.0 W/m2 CLR
16:31 -11.3 °C -15.2 °C 35187.3 hPa NNW 11.9 km/h 11.9 km/h 62 % 0 mm 91.0 W/m2 CLR
16:36 -11.3 °C -15.2 °C 35187.3 hPa Calm     62 % 0 mm 79.0 W/m2 FEW
16:39 -11.3 °C -15.2 °C 35187.3 hPa Calm     62 % 0 mm 74.0 W/m2 FEW
16:41 -11.6 °C -15.5 °C 35187.3 hPa Calm     62 % 0 mm 58.0 W/m2 SCT
16:44 -11.6 °C -15.5 °C 35187.3 hPa Calm     62 % 0 mm 62.0 W/m2 SCT
16:47 -11.6 °C -15.5 °C 35187.3 hPa Calm     62 % 0 mm 47.0 W/m2 SCT
16:50 -11.6 °C -15.5 °C 35187.3 hPa Calm     62 % 0 mm 46.0 W/m2 SCT
16:53 -11.9 °C -15.8 °C 35187.3 hPa Calm     62 % 0 mm 37.0 W/m2 BKN
16:58 -12.2 °C -16.1 °C 35187.3 hPa Calm     62 % 0 mm 32.0 W/m2 BKN
16:59 -12.2 °C -16.1 °C 35187.3 hPa Calm     62 % 0 mm 30.0 W/m2 BKN
17:00 -12.2 °C -16.1 °C 35187.3 hPa Calm     62 % 0 mm 28.0 W/m2 BKN
17:04 -12.6 °C -16.4 °C 35187.3 hPa Calm     62 % 0 mm 21.0 W/m2 BKN
17:09 -12.8 °C -16.7 °C 35187.3 hPa Calm     62 % 0 mm 18.0 W/m2 BKN
17:10 -12.8 °C -16.7 °C 35187.3 hPa Calm     62 % 0 mm 16.0 W/m2 BKN
17:15 -13.2 °C -16.8 °C 35187.3 hPa Calm     63 % 0 mm 14.0 W/m2 BKN
17:16 -13.2 °C -16.8 °C 35187.3 hPa Calm     63 % 0 mm 12.0 W/m2 BKN
17:21 -13.2 °C -16.8 °C 35187.3 hPa Calm     63 % 0 mm 11.0 W/m2 BKN
17:23 -13.4 °C -17.1 °C 35187.3 hPa Calm     63 % 0 mm 11.0 W/m2 BKN
17:25 -13.4 °C -17 °C 35187.3 hPa Calm     64 % 0 mm 9.0 W/m2 BKN
17:30 -13.4 °C -16.8 °C 35187.3 hPa Calm     66 % 0 mm 7.0 W/m2 BKN
17:32 -13.4 °C -16.6 °C 35187.3 hPa Calm     67 % 0 mm 5.0 W/m2 OVC
17:36 -13.8 °C -16.9 °C 35187.3 hPa Calm     67 % 0 mm 0.0 W/m2 OVC
17:37 -13.8 °C -16.9 °C 35187.3 hPa Calm     67 % 0 mm 0.0 W/m2 OVC
17:38 -13.8 °C -16.9 °C 35187.3 hPa Calm     67 % 0 mm 0.0 W/m2 OVC
17:42 -13.8 °C -17.1 °C 35187.3 hPa Calm     66 % 0 mm 0.0 W/m2 OVC
17:43 -13.8 °C -16.9 °C 35187.3 hPa Calm     67 % 0 mm 0.0 W/m2 OVC
17:45 -14.1 °C -17.3 °C 35187.3 hPa Calm     67 % 0 mm 0.0 W/m2 CLR
17:48 -14.1 °C -17.3 °C 35187.3 hPa Calm     67 % 0 mm 0.0 W/m2 CLR
17:51 -14.1 °C -17.3 °C 35187.3 hPa Calm     66 % 0 mm 0.0 W/m2 CLR
17:55 -14.4 °C -17.7 °C 35187.3 hPa Calm     66 % 0 mm 0.0 W/m2 CLR
17:56 -14.4 °C -17.6 °C 35187.3 hPa Calm     67 % 0 mm 0.0 W/m2 CLR
17:57 -14.4 °C -17.6 °C 35187.3 hPa Calm     67 % 0 mm 0.0 W/m2 CLR
18:02 -14.4 °C -17.6 °C 35197.5 hPa Calm     67 % 0 mm 0.0 W/m2 CLR
18:07 -14.7 °C -17.6 °C 35197.5 hPa Calm     69 % 0 mm 0.0 W/m2 CLR
18:08 -14.7 °C -17.6 °C 35197.5 hPa Calm     69 % 0 mm 0.0 W/m2 CLR
18:13 -14.7 °C -17.4 °C 35187.3 hPa Calm     71 % 0 mm 0.0 W/m2 CLR
18:15 -14.7 °C -17.4 °C 35187.3 hPa Calm     71 % 0 mm 0.0 W/m2 CLR
18:20 -15 °C -17.6 °C 35187.3 hPa Calm     72 % 0 mm 0.0 W/m2 CLR
18:21 -15 °C -17.6 °C 35187.3 hPa Calm     72 % 0 mm 0.0 W/m2 CLR
18:25 -15 °C -17.7 °C 35197.5 hPa Calm     71 % 0 mm 0.0 W/m2 CLR
18:30 -15 °C -17.6 °C 35197.5 hPa Calm     72 % 0 mm 0.0 W/m2 CLR
18:31 -15 °C -17.6 °C 35197.5 hPa Calm     72 % 0 mm 0.0 W/m2 CLR
18:36 -15 °C -17.4 °C 35197.5 hPa Calm     73 % 0 mm 0.0 W/m2 CLR
18:37 -15 °C -17.4 °C 35197.5 hPa Calm     73 % 0 mm 0.0 W/m2 CLR
18:42 -15 °C -17.4 °C 35197.5 hPa Calm     74 % 0 mm 0.0 W/m2 CLR
18:43 -15 °C -17.4 °C 35197.5 hPa Calm     74 % 0 mm 0.0 W/m2 CLR
18:48 -15.3 °C -17.7 °C 35197.5 hPa Calm     74 % 0 mm 0.0 W/m2 CLR
18:53 -15.3 °C -17.4 °C 35197.5 hPa Calm     76 % 0 mm 0.0 W/m2 CLR
18:56 -15.6 °C -17.9 °C 35197.5 hPa Calm     75 % 0 mm 0.0 W/m2 CLR
18:57 -15.6 °C -17.9 °C 35197.5 hPa Calm     75 % 0 mm 0.0 W/m2 CLR
19:02 -15.6 °C -17.7 °C 35197.5 hPa Calm     76 % 0 mm 0.0 W/m2 CLR
19:07 -15.9 °C -17.9 °C 35197.5 hPa Calm     77 % 0 mm 0.0 W/m2 CLR
19:11 -15.6 °C -17.6 °C 35197.5 hPa Calm     78 % 0 mm 0.0 W/m2 CLR
19:13 -15.6 °C -17.6 °C 35197.5 hPa Calm     78 % 0 mm 0.0 W/m2 CLR
19:18 -15.6 °C -17.6 °C 35197.5 hPa Calm     78 % 0 mm 0.0 W/m2 CLR
19:20 -15.6 °C -17.4 °C 35197.5 hPa Calm     79 % 0 mm 0.0 W/m2 CLR
19:24 -15.6 °C -17.4 °C 35197.5 hPa Calm     79 % 0 mm 0.0 W/m2 CLR
19:27 -15.6 °C -17.4 °C 35197.5 hPa Calm     79 % 0 mm 0.0 W/m2 CLR
19:34 -15.9 °C -17.9 °C 35197.5 hPa Calm     78 % 0 mm 0.0 W/m2 CLR
19:39 -15.9 °C -17.7 °C 35197.5 hPa Calm     79 % 0 mm 0.0 W/m2 CLR
19:41 -15.9 °C -17.7 °C 35207.6 hPa Calm     79 % 0 mm 0.0 W/m2 CLR
19:46 -15.9 °C -17.7 °C 35207.6 hPa Calm     80 % 0 mm 0.0 W/m2 CLR
19:47 -15.9 °C -17.7 °C 35207.6 hPa Calm     80 % 0 mm 0.0 W/m2 CLR
19:52 -15.9 °C -17.7 °C 35197.5 hPa Calm     80 % 0 mm 0.0 W/m2 CLR
19:57 -15.9 °C -17.7 °C 35207.6 hPa Calm     80 % 0 mm 0.0 W/m2 CLR
20:02 -15.9 °C -17.7 °C 35207.6 hPa Calm     80 % 0 mm 0.0 W/m2 CLR
20:04 -15.9 °C -17.7 °C 35207.6 hPa Calm     80 % 0 mm 0.0 W/m2 CLR
20:06 -15.9 °C -17.7 °C 35207.6 hPa Calm     80 % 0 mm 0.0 W/m2 CLR
20:09 -15.6 °C -17.3 °C 35207.6 hPa Calm     81 % 0 mm 0.0 W/m2 CLR
20:12 -15.6 °C -17.2 °C 35207.6 hPa Calm     82 % 0 mm 0.0 W/m2 CLR
20:14 -15.6 °C -17.2 °C 35221.2 hPa Calm     82 % 0 mm 0.0 W/m2 CLR
20:18 -15.9 °C -17.4 °C 35221.2 hPa Calm     82 % 0 mm 0.0 W/m2 CLR
20:21 -15.9 °C -17.4 °C 35221.2 hPa Calm     82 % 0 mm 0.0 W/m2 CLR
20:26 -15.9 °C -17.4 °C 35207.6 hPa Calm     82 % 0 mm 0.0 W/m2 CLR
20:27 -15.9 °C -17.4 °C 35207.6 hPa Calm     82 % 0 mm 0.0 W/m2 CLR
20:32 -15.9 °C -17.4 °C 35207.6 hPa Calm     82 % 0 mm 0.0 W/m2 CLR
20:37 -15.9 °C -17.4 °C 35207.6 hPa Calm     82 % 0 mm 0.0 W/m2 CLR
20:42 -15.9 °C -17.4 °C 35207.6 hPa Calm     82 % 0 mm 0.0 W/m2 CLR
20:43 -15.9 °C -17.4 °C 35207.6 hPa Calm     82 % 0 mm 0.0 W/m2 CLR
20:48 -15.9 °C -17.4 °C 35207.6 hPa Calm     82 % 0 mm 0.0 W/m2 CLR
20:50 -15.9 °C -17.4 °C 35221.2 hPa Calm     82 % 0 mm 0.0 W/m2 CLR
20:51 -16.2 °C -17.7 °C 35207.6 hPa Calm     83 % 0 mm 0.0 W/m2 CLR
20:56 -16.2 °C -17.7 °C 35207.6 hPa Calm     83 % 0 mm 0.0 W/m2 CLR
20:58 -16.2 °C -17.7 °C 35207.6 hPa Calm     83 % 0 mm 0.0 W/m2 CLR
21:02 -16.2 °C -17.6 °C 35207.6 hPa Calm     84 % 0 mm 0.0 W/m2 CLR
21:07 -16.2 °C -17.6 °C 35207.6 hPa Calm     84 % 0 mm 0.0 W/m2 CLR
21:09 -16.6 °C -17.9 °C 35207.6 hPa Calm     84 % 0 mm 0.0 W/m2 CLR
21:14 -16.6 °C -17.9 °C 35207.6 hPa Calm     84 % 0 mm 0.0 W/m2 CLR
21:15 -16.6 °C -17.9 °C 35207.6 hPa Calm     84 % 0 mm 0.0 W/m2 CLR
21:20 -16.6 °C -17.9 °C 35221.2 hPa Calm     84 % 0 mm 0.0 W/m2 CLR
21:24 -16.6 °C -17.9 °C 35221.2 hPa Calm     84 % 0 mm 0.0 W/m2 CLR
21:26 -16.6 °C -17.9 °C 35221.2 hPa Calm     84 % 0 mm 0.0 W/m2 CLR
21:29 -16.6 °C -18 °C 35221.2 hPa Calm     83 % 0 mm 0.0 W/m2 CLR
21:33 -16.2 °C -17.7 °C 35221.2 hPa Calm     83 % 0 mm 0.0 W/m2 CLR
21:36 -16.2 °C -17.7 °C 35221.2 hPa Calm     83 % 0 mm 0.0 W/m2 CLR
21:39 -16.2 °C -17.7 °C 35221.2 hPa Calm     83 % 0 mm 0.0 W/m2 CLR
21:43 -16.6 °C -17.9 °C 35221.2 hPa Calm     84 % 0 mm 0.0 W/m2 CLR
21:44 -16.6 °C -18 °C 35221.2 hPa Calm     83 % 0 mm 0.0 W/m2 CLR
21:49 -16.6 °C -18 °C 35221.2 hPa Calm     83 % 0 mm 0.0 W/m2 CLR
21:50 -16.6 °C -18 °C 35221.2 hPa Calm     83 % 0 mm 0.0 W/m2 CLR
21:55 -16.6 °C -18.2 °C 35221.2 hPa Calm     81 % 0 mm 0.0 W/m2 CLR
22:00 -16.6 °C -18.1 °C 35221.2 hPa Calm     82 % 0 mm 0.0 W/m2 CLR
22:02 -16.6 °C -18 °C 35221.2 hPa Calm     83 % 0 mm 0.0 W/m2 CLR
22:05 -16.6 °C -17.9 °C 35221.2 hPa Calm     84 % 0 mm 0.0 W/m2 CLR
22:07 -16.6 °C -17.9 °C 35221.2 hPa Calm     84 % 0 mm 0.0 W/m2 CLR
22:13 -16.6 °C -17.8 °C 35221.2 hPa Calm     85 % 0 mm 0.0 W/m2 CLR
22:18 -16.6 °C -17.8 °C 35207.6 hPa Calm     85 % 0 mm 0.0 W/m2 CLR
22:19 -16.6 °C -17.8 °C 35221.2 hPa Calm     85 % 0 mm 0.0 W/m2 CLR
22:24 -16.6 °C -17.9 °C 35207.6 hPa Calm     84 % 0 mm 0.0 W/m2 CLR
22:29 -16.6 °C -17.9 °C 35207.6 hPa Calm     84 % 0 mm 0.0 W/m2 CLR
22:32 -16.6 °C -17.9 °C 35207.6 hPa Calm     84 % 0 mm 0.0 W/m2 CLR
22:37 -16.6 °C -17.9 °C 35207.6 hPa Calm     84 % 0 mm 0.0 W/m2 CLR
22:40 -16.8 °C -18.1 °C 35207.6 hPa Calm     85 % 0 mm 0.0 W/m2 CLR
22:43 -16.8 °C -18.1 °C 35207.6 hPa Calm     85 % 0 mm 0.0 W/m2 CLR
22:48 -16.8 °C -18.1 °C 35207.6 hPa Calm     85 % 0 mm 0.0 W/m2 CLR
22:50 -16.8 °C -18.1 °C 35207.6 hPa Calm     85 % 0 mm 0.0 W/m2 CLR
22:55 -16.8 °C -18.1 °C 35207.6 hPa Calm     85 % 0 mm 0.0 W/m2 CLR
22:56 -16.8 °C -18.1 °C 35207.6 hPa Calm     85 % 0 mm 0.0 W/m2 CLR
23:01 -16.8 °C -18.1 °C 35207.6 hPa Calm     85 % 0 mm 0.0 W/m2 CLR
23:06 -16.8 °C -18.1 °C 35207.6 hPa Calm     85 % 0 mm 0.0 W/m2 CLR
23:09 -16.8 °C -18.1 °C 35221.2 hPa Calm     85 % 0 mm 0.0 W/m2 CLR
23:11 -16.8 °C -18.1 °C 35207.6 hPa Calm     85 % 0 mm 0.0 W/m2 CLR
23:14 -17.2 °C -18.4 °C 35221.2 hPa Calm     85 % 0 mm 0.0 W/m2 CLR
23:16 -17.2 °C -18.4 °C 35221.2 hPa Calm     85 % 0 mm 0.0 W/m2 CLR
23:21 -17.2 °C -18.4 °C 35221.2 hPa Calm     85 % 0 mm 0.0 W/m2 CLR
23:26 -17.2 °C -18.3 °C 35221.2 hPa Calm     86 % 0 mm 0.0 W/m2 CLR
23:27 -17.2 °C -18.3 °C 35221.2 hPa Calm     86 % 0 mm 0.0 W/m2 CLR
23:29 -17.2 °C -18.3 °C 35221.2 hPa Calm     86 % 0 mm 0.0 W/m2 CLR
23:32 -17.2 °C -18.4 °C 35221.2 hPa Calm     85 % 0 mm 0.0 W/m2 CLR
23:37 -17.2 °C -18.3 °C 35221.2 hPa Calm     86 % 0 mm 0.0 W/m2 CLR
23:38 -17.2 °C -18.3 °C 35221.2 hPa Calm     86 % 0 mm 0.0 W/m2 CLR
23:39 -17.2 °C -18.3 °C 35221.2 hPa Calm     86 % 0 mm 0.0 W/m2 CLR
23:44 -17.2 °C -18.3 °C 35221.2 hPa Calm     86 % 0 mm 0.0 W/m2 CLR
23:49 -17.2 °C -18.3 °C 35221.2 hPa Calm     86 % 0 mm 0.0 W/m2 CLR
23:54 -17.2 °C -18.3 °C 35221.2 hPa Calm     86 % 0 mm 0.0 W/m2 CLR
23:56 -17.2 °C -18.2 °C 35221.2 hPa Calm     87 % 0 mm 0.0 W/m2 CLR
Lo Temps de Massalio
Compliments of Weather Underground - 1.75 mb